createdAt,value
2018-02-18T00:00:08.751Z,66.55
2018-02-18T00:01:08.517Z,66.64
2018-02-18T00:02:08.479Z,66.55
2018-02-18T00:03:08.745Z,67.02
2018-02-18T00:04:08.511Z,66.74
2018-02-18T00:05:08.508Z,66.93
2018-02-18T00:06:08.800Z,66.83
2018-02-18T00:07:08.808Z,66.93
2018-02-18T00:08:08.827Z,66.74
2018-02-18T00:09:08.465Z,66.93
2018-02-18T00:10:08.476Z,66.83
2018-02-18T00:11:08.490Z,66.74
2018-02-18T00:12:08.780Z,66.74
2018-02-18T00:13:08.790Z,66.74
2018-02-18T00:14:08.522Z,67.31
2018-02-18T00:15:08.533Z,66.64
2018-02-18T00:16:08.546Z,66.64
2018-02-18T00:17:08.556Z,66.74
2018-02-18T00:18:08.853Z,66.83
2018-02-18T00:19:08.860Z,66.74
2018-02-18T00:20:08.586Z,66.93
2018-02-18T00:21:08.878Z,66.64
2018-02-18T00:22:08.609Z,67.21
2018-02-18T00:23:08.903Z,67.31
2018-02-18T00:24:08.915Z,67.02
2018-02-18T00:25:08.926Z,66.64
2018-02-18T00:26:08.984Z,66.74
2018-02-18T00:27:08.951Z,67.31
2018-02-18T00:28:08.957Z,66.93
2018-02-18T00:29:08.684Z,66.55
2018-02-18T00:30:08.976Z,67.02
2018-02-18T00:31:08.997Z,67.02
2018-02-18T00:32:09.001Z,66.74
2018-02-18T00:33:09.015Z,66.83
2018-02-18T00:34:09.024Z,67.69
2018-02-18T00:35:09.092Z,66.74
2018-02-18T00:36:09.046Z,66.93
2018-02-18T00:37:09.055Z,66.93
2018-02-18T00:38:09.064Z,66.93
2018-02-18T00:39:08.804Z,67.02
2018-02-18T00:40:09.092Z,66.93
2018-02-18T00:41:09.148Z,66.64
2018-02-18T00:42:08.827Z,66.93
2018-02-18T00:43:09.125Z,67.12
2018-02-18T00:44:09.130Z,66.64
2018-02-18T00:45:09.152Z,66.93
2018-02-18T00:46:09.157Z,66.93
2018-02-18T00:47:09.168Z,66.93
2018-02-18T00:48:09.186Z,66.93
2018-02-18T00:49:09.192Z,66.93
2018-02-18T00:50:09.197Z,67.02
2018-02-18T00:51:09.210Z,66.93
2018-02-18T00:52:08.945Z,66.93
2018-02-18T00:53:08.947Z,66.74
2018-02-18T00:54:09.244Z,66.93
2018-02-18T00:55:09.251Z,67.02
2018-02-18T00:56:09.265Z,67.02
2018-02-18T00:57:09.275Z,67.02
2018-02-18T00:58:09.289Z,66.93
2018-02-18T00:59:09.301Z,67.02
2018-02-18T01:00:09.305Z,67.02
2018-02-18T01:01:09.374Z,66.93
2018-02-18T01:02:09.047Z,67.02
2018-02-18T01:03:09.338Z,66.93
2018-02-18T01:04:09.361Z,66.93
2018-02-18T01:05:09.361Z,67.02
2018-02-18T01:06:09.422Z,67.12
2018-02-18T01:07:09.385Z,67.12
2018-02-18T01:08:09.110Z,66.93
2018-02-18T01:09:09.402Z,66.93
2018-02-18T01:10:09.415Z,67.02
2018-02-18T01:11:09.424Z,67.02
2018-02-18T01:12:09.155Z,67.12
2018-02-18T01:13:09.165Z,67.12
2018-02-18T01:14:09.459Z,67.12
2018-02-18T01:15:09.478Z,66.93
2018-02-18T01:16:09.486Z,66.93
2018-02-18T01:17:09.493Z,66.93
2018-02-18T01:18:09.502Z,67.02
2018-02-18T01:19:09.230Z,66.93
2018-02-18T01:20:09.528Z,66.93
2018-02-18T01:21:09.582Z,67.02
2018-02-18T01:22:09.548Z,67.12
2018-02-18T01:23:09.558Z,66.55
2018-02-18T01:24:09.569Z,66.93
2018-02-18T01:25:09.581Z,67.02
2018-02-18T01:26:09.638Z,66.93
2018-02-18T01:27:09.605Z,67.02
2018-02-18T01:28:09.610Z,66.93
2018-02-18T01:29:09.624Z,67.12
2018-02-18T01:30:09.633Z,67.02
2018-02-18T01:31:09.644Z,67.02
2018-02-18T01:32:09.652Z,67.02
2018-02-18T01:33:09.381Z,67.02
2018-02-18T01:34:09.676Z,67.02
2018-02-18T01:35:09.686Z,67.02
2018-02-18T01:36:09.746Z,67.02
2018-02-18T01:37:09.707Z,67.02
2018-02-18T01:38:09.439Z,66.93
2018-02-18T01:39:09.732Z,67.02
2018-02-18T01:40:09.741Z,66.74
2018-02-18T01:41:09.811Z,66.83
2018-02-18T01:42:09.764Z,66.93
2018-02-18T01:43:09.774Z,67.12
2018-02-18T01:44:09.501Z,67.02
2018-02-18T01:45:09.799Z,67.02
2018-02-18T01:46:09.526Z,66.93
2018-02-18T01:47:09.819Z,67.12
2018-02-18T01:48:09.544Z,67.12
2018-02-18T01:49:09.839Z,67.12
2018-02-18T01:50:09.849Z,66.93
2018-02-18T01:51:09.860Z,67.21
2018-02-18T01:52:09.591Z,66.93
2018-02-18T01:53:09.886Z,66.93
2018-02-18T01:54:09.898Z,67.12
2018-02-18T01:55:09.907Z,67.12
2018-02-18T01:56:09.973Z,66.93
2018-02-18T01:57:09.643Z,66.93
2018-02-18T01:58:09.947Z,67.02
2018-02-18T01:59:09.665Z,66.74
2018-02-18T02:00:09.959Z,66.74
2018-02-18T02:01:09.977Z,66.93
2018-02-18T02:02:09.984Z,67.02
2018-02-18T02:03:09.992Z,66.93
2018-02-18T02:04:10.003Z,66.74
2018-02-18T02:05:09.738Z,66.93
2018-02-18T02:06:10.029Z,66.93
2018-02-18T02:07:10.033Z,66.93
2018-02-18T02:08:10.048Z,66.64
2018-02-18T02:09:09.784Z,66.64
2018-02-18T02:10:10.073Z,66.64
2018-02-18T02:11:09.795Z,66.74
2018-02-18T02:12:10.088Z,66.64
2018-02-18T02:13:10.101Z,66.64
2018-02-18T02:14:10.115Z,66.64
2018-02-18T02:15:10.120Z,66.64
2018-02-18T02:16:10.129Z,66.64
2018-02-18T02:17:10.147Z,66.64
2018-02-18T02:18:10.150Z,66.93
2018-02-18T02:19:10.166Z,66.83
2018-02-18T02:20:10.183Z,66.74
2018-02-18T02:21:10.186Z,66.83
2018-02-18T02:22:10.198Z,66.93
2018-02-18T02:23:09.922Z,66.83
2018-02-18T02:24:10.216Z,66.83
2018-02-18T02:25:09.946Z,66.74
2018-02-18T02:26:09.957Z,66.93
2018-02-18T02:27:10.255Z,66.93
2018-02-18T02:28:10.271Z,66.93
2018-02-18T02:29:10.268Z,67.02
2018-02-18T02:30:10.289Z,66.93
2018-02-18T02:31:10.295Z,67.21
2018-02-18T02:32:10.304Z,67.59
2018-02-18T02:33:10.034Z,66.55
2018-02-18T02:34:10.325Z,66.83
2018-02-18T02:35:10.336Z,66.93
2018-02-18T02:36:10.348Z,66.55
2018-02-18T02:37:10.073Z,67.02
2018-02-18T02:38:10.370Z,66.93
2018-02-18T02:39:10.097Z,66.83
2018-02-18T02:40:10.107Z,67.02
2018-02-18T02:41:10.401Z,67.21
2018-02-18T02:42:10.130Z,67.21
2018-02-18T02:43:10.428Z,67.4
2018-02-18T02:44:10.432Z,67.21
2018-02-18T02:45:10.447Z,67.4
2018-02-18T02:46:10.456Z,67.4
2018-02-18T02:47:10.486Z,67.02
2018-02-18T02:48:10.481Z,67.02
2018-02-18T02:49:10.489Z,67.4
2018-02-18T02:50:10.499Z,67.02
2018-02-18T02:51:10.225Z,67.21
2018-02-18T02:52:10.236Z,67.21
2018-02-18T02:53:10.530Z,67.4
2018-02-18T02:54:10.537Z,67.56
2018-02-18T02:55:10.550Z,67.56
2018-02-18T02:56:10.569Z,67.4
2018-02-18T02:57:10.576Z,67.37
2018-02-18T02:58:10.586Z,67.56
2018-02-18T02:59:10.598Z,67.37
2018-02-18T03:00:10.613Z,67.56
2018-02-18T03:01:10.332Z,67.46
2018-02-18T03:02:10.635Z,67.4
2018-02-18T03:03:10.647Z,67.08
2018-02-18T03:04:10.648Z,67.56
2018-02-18T03:05:10.660Z,66.89
2018-02-18T03:06:10.388Z,67.37
2018-02-18T03:07:10.680Z,67.08
2018-02-18T03:08:10.697Z,67.56
2018-02-18T03:09:10.702Z,67.56
2018-02-18T03:10:10.433Z,67.27
2018-02-18T03:11:10.722Z,67.56
2018-02-18T03:12:10.732Z,67.4
2018-02-18T03:13:10.773Z,67.46
2018-02-18T03:14:10.755Z,67.75
2018-02-18T03:15:10.765Z,67.56
2018-02-18T03:16:10.779Z,67.56
2018-02-18T03:17:10.789Z,67.56
2018-02-18T03:18:10.797Z,67.37
2018-02-18T03:19:10.808Z,67.18
2018-02-18T03:20:10.823Z,67.27
2018-02-18T03:21:10.829Z,66.89
2018-02-18T03:22:10.845Z,67.37
2018-02-18T03:23:10.571Z,67.56
2018-02-18T03:24:10.684Z,67.56
2018-02-18T03:25:10.871Z,67.46
2018-02-18T03:26:10.890Z,67.46
2018-02-18T03:27:10.945Z,67.46
2018-02-18T03:28:10.908Z,67.37
2018-02-18T03:29:10.632Z,67.46
2018-02-18T03:30:10.645Z,67.37
2018-02-18T03:31:10.940Z,67.37
2018-02-18T03:32:10.949Z,67.56
2018-02-18T03:33:10.970Z,67.46
2018-02-18T03:34:10.970Z,67.37
2018-02-18T03:35:10.981Z,67.37
2018-02-18T03:36:10.709Z,67.46
2018-02-18T03:37:10.762Z,67.46
2018-02-18T03:38:11.023Z,67.37
2018-02-18T03:39:10.739Z,67.37
2018-02-18T03:40:11.034Z,67.27
2018-02-18T03:41:11.055Z,67.08
2018-02-18T03:42:10.822Z,67.37
2018-02-18T03:43:11.064Z,67.08
2018-02-18T03:44:11.075Z,67.18
2018-02-18T03:45:10.802Z,67.18
2018-02-18T03:46:11.096Z,67.27
2018-02-18T03:47:10.878Z,67.4
2018-02-18T03:48:11.120Z,67.37
2018-02-18T03:49:11.127Z,67.37
2018-02-18T03:50:10.860Z,67.27
2018-02-18T03:51:11.152Z,67.37
2018-02-18T03:52:11.168Z,67.27
2018-02-18T03:53:11.177Z,67.37
2018-02-18T03:54:11.183Z,67.37
2018-02-18T03:55:10.912Z,67.37
2018-02-18T03:56:11.202Z,67.46
2018-02-18T03:57:11.216Z,67.46
2018-02-18T03:58:11.225Z,67.37
2018-02-18T03:59:11.242Z,67.18
2018-02-18T04:00:11.246Z,67.18
2018-02-18T04:01:11.267Z,67.37
2018-02-18T04:02:11.265Z,67.37
2018-02-18T04:03:11.276Z,67.18
2018-02-18T04:04:11.289Z,67.08
2018-02-18T04:05:11.451Z,67.27
2018-02-18T04:06:11.025Z,67.18
2018-02-18T04:07:11.319Z,67.46
2018-02-18T04:08:11.336Z,67.27
2018-02-18T04:09:11.341Z,67.46
2018-02-18T04:10:11.352Z,67.27
2018-02-18T04:11:11.365Z,67.08
2018-02-18T04:12:11.095Z,67.37
2018-02-18T04:13:11.104Z,67.46
2018-02-18T04:14:11.399Z,67.85
2018-02-18T04:15:11.410Z,67.56
2018-02-18T04:16:11.418Z,68.04
2018-02-18T04:17:11.429Z,67.65
2018-02-18T04:18:11.438Z,67.56
2018-02-18T04:19:11.446Z,67.56
2018-02-18T04:20:11.176Z,67.46
2018-02-18T04:21:11.470Z,67.56
2018-02-18T04:22:11.505Z,67.37
2018-02-18T04:23:11.490Z,67.56
2018-02-18T04:24:11.216Z,67.56
2018-02-18T04:25:11.229Z,67.56
2018-02-18T04:26:11.242Z,67.27
2018-02-18T04:27:11.532Z,67.65
2018-02-18T04:28:11.542Z,67.56
2018-02-18T04:29:11.558Z,67.56
2018-02-18T04:30:11.570Z,67.56
2018-02-18T04:31:11.292Z,67.94
2018-02-18T04:32:11.629Z,67.46
2018-02-18T04:33:11.600Z,67.08
2018-02-18T04:34:11.610Z,67.56
2018-02-18T04:35:11.618Z,67.56
2018-02-18T04:36:11.629Z,67.18
2018-02-18T04:37:11.357Z,67.65
2018-02-18T04:38:11.648Z,67.94
2018-02-18T04:39:11.661Z,67.56
2018-02-18T04:40:11.388Z,67.46
2018-02-18T04:41:11.680Z,67.65
2018-02-18T04:42:11.690Z,67.65
2018-02-18T04:43:11.700Z,67.56
2018-02-18T04:44:11.430Z,67.56
2018-02-18T04:45:11.445Z,67.46
2018-02-18T04:46:11.735Z,67.65
2018-02-18T04:47:11.745Z,67.56
2018-02-18T04:48:11.754Z,67.56
2018-02-18T04:49:11.765Z,67.56
2018-02-18T04:50:11.778Z,67.65
2018-02-18T04:51:11.503Z,67.94
2018-02-18T04:52:11.799Z,67.56
2018-02-18T04:53:11.806Z,67.56
2018-02-18T04:54:11.816Z,67.46
2018-02-18T04:55:11.828Z,67.18
2018-02-18T04:56:11.557Z,67.18
2018-02-18T04:57:11.853Z,67.56
2018-02-18T04:58:11.866Z,67.18
2018-02-18T04:59:11.871Z,67.46
2018-02-18T05:00:11.882Z,67.18
2018-02-18T05:01:11.895Z,67.56
2018-02-18T05:02:11.903Z,67.27
2018-02-18T05:03:11.645Z,67.46
2018-02-18T05:04:11.927Z,67.08
2018-02-18T05:05:11.656Z,67.37
2018-02-18T05:06:11.952Z,67.46
2018-02-18T05:07:11.957Z,67.18
2018-02-18T05:08:12.019Z,67.46
2018-02-18T05:09:11.977Z,67.46
2018-02-18T05:10:11.988Z,67.46
2018-02-18T05:11:12.007Z,67.18
2018-02-18T05:12:12.009Z,67.46
2018-02-18T05:13:12.026Z,67.08
2018-02-18T05:14:11.748Z,67.46
2018-02-18T05:15:12.041Z,67.08
2018-02-18T05:16:12.052Z,67.46
2018-02-18T05:17:12.062Z,67.18
2018-02-18T05:18:12.076Z,67.46
2018-02-18T05:19:12.082Z,67.27
2018-02-18T05:20:12.099Z,67.27
2018-02-18T05:21:12.111Z,67.27
2018-02-18T05:22:12.113Z,67.27
2018-02-18T05:23:12.127Z,67.27
2018-02-18T05:24:12.140Z,67.27
2018-02-18T05:25:12.147Z,67.18
2018-02-18T05:26:11.875Z,67.27
2018-02-18T05:27:11.886Z,67.18
2018-02-18T05:28:12.180Z,67.27
2018-02-18T05:29:12.190Z,67.27
2018-02-18T05:30:12.201Z,67.27
2018-02-18T05:31:12.212Z,67.27
2018-02-18T05:32:12.228Z,67.27
2018-02-18T05:33:12.236Z,67.08
2018-02-18T05:34:12.242Z,66.99
2018-02-18T05:35:12.257Z,67.08
2018-02-18T05:36:12.267Z,67.18
2018-02-18T05:37:12.278Z,67.08
2018-02-18T05:38:12.002Z,67.18
2018-02-18T05:39:12.302Z,67.18
2018-02-18T05:40:12.309Z,67.18
2018-02-18T05:41:12.035Z,67.94
2018-02-18T05:42:12.330Z,66.99
2018-02-18T05:43:12.342Z,67.27
2018-02-18T05:44:12.065Z,67.18
2018-02-18T05:45:12.361Z,67.18
2018-02-18T05:46:12.089Z,67.18
2018-02-18T05:47:12.101Z,67.37
2018-02-18T05:48:12.390Z,67.37
2018-02-18T05:49:12.404Z,67.37
2018-02-18T05:50:12.415Z,67.27
2018-02-18T05:51:12.143Z,67.37
2018-02-18T05:52:12.431Z,67.46
2018-02-18T05:53:12.443Z,67.37
2018-02-18T05:54:12.455Z,67.56
2018-02-18T05:55:12.465Z,67.46
2018-02-18T05:56:12.478Z,67.46
2018-02-18T05:57:12.206Z,67.46
2018-02-18T05:58:12.502Z,67.27
2018-02-18T05:59:12.225Z,68.23
2018-02-18T06:00:12.518Z,67.27
2018-02-18T06:01:12.532Z,67.27
2018-02-18T06:02:12.541Z,67.46
2018-02-18T06:03:12.552Z,67.56
2018-02-18T06:04:12.564Z,67.37
2018-02-18T06:05:12.606Z,67.37
2018-02-18T06:06:12.298Z,67.46
2018-02-18T06:07:12.309Z,67.56
2018-02-18T06:08:12.605Z,67.27
2018-02-18T06:09:12.612Z,67.37
2018-02-18T06:10:12.623Z,67.37
2018-02-18T06:11:12.636Z,67.37
2018-02-18T06:12:12.360Z,67.56
2018-02-18T06:13:12.424Z,67.46
2018-02-18T06:14:12.380Z,67.37
2018-02-18T06:15:12.398Z,67.75
2018-02-18T06:16:12.687Z,67.37
2018-02-18T06:17:12.696Z,67.46
2018-02-18T06:18:12.757Z,67.27
2018-02-18T06:19:12.717Z,67.46
2018-02-18T06:20:12.443Z,67.37
2018-02-18T06:21:12.455Z,67.37
2018-02-18T06:22:12.466Z,67.37
2018-02-18T06:23:12.760Z,67.37
2018-02-18T06:24:12.771Z,67.37
2018-02-18T06:25:12.782Z,67.27
2018-02-18T06:26:12.507Z,67.27
2018-02-18T06:27:12.524Z,68.13
2018-02-18T06:28:12.862Z,67.56
2018-02-18T06:29:12.828Z,67.46
2018-02-18T06:30:12.842Z,67.37
2018-02-18T06:31:12.846Z,67.46
2018-02-18T06:32:12.860Z,67.37
2018-02-18T06:33:12.864Z,67.46
2018-02-18T06:34:12.593Z,67.56
2018-02-18T06:35:12.888Z,67.37
2018-02-18T06:36:12.614Z,67.37
2018-02-18T06:37:12.625Z,67.37
2018-02-18T06:38:13.026Z,67.56
2018-02-18T06:39:12.645Z,67.46
2018-02-18T06:40:12.940Z,67.56
2018-02-18T06:41:12.952Z,67.56
2018-02-18T06:42:12.677Z,67.65
2018-02-18T06:43:12.969Z,67.65
2018-02-18T06:44:12.984Z,67.56
2018-02-18T06:45:12.991Z,67.46
2018-02-18T06:46:13.000Z,67.37
2018-02-18T06:47:13.013Z,67.37
2018-02-18T06:48:12.740Z,67.46
2018-02-18T06:49:13.035Z,67.46
2018-02-18T06:50:13.044Z,67.56
2018-02-18T06:51:13.055Z,67.85
2018-02-18T06:52:13.062Z,67.94
2018-02-18T06:53:13.118Z,67.94
2018-02-18T06:54:13.083Z,67.56
2018-02-18T06:55:13.102Z,67.85
2018-02-18T06:56:12.825Z,67.46
2018-02-18T06:57:12.834Z,67.46
2018-02-18T06:58:13.128Z,67.37
2018-02-18T06:59:13.141Z,67.37
2018-02-18T07:00:13.148Z,67.46
2018-02-18T07:01:13.163Z,67.46
2018-02-18T07:02:13.166Z,67.27
2018-02-18T07:03:12.898Z,67.27
2018-02-18T07:04:13.196Z,67.46
2018-02-18T07:05:12.919Z,67.27
2018-02-18T07:06:12.930Z,67.46
2018-02-18T07:07:13.228Z,67.65
2018-02-18T07:08:13.231Z,67.56
2018-02-18T07:09:12.962Z,67.56
2018-02-18T07:10:13.253Z,67.27
2018-02-18T07:11:12.983Z,67.27
2018-02-18T07:12:12.991Z,67.65
2018-02-18T07:13:13.003Z,67.56
2018-02-18T07:14:13.303Z,67.75
2018-02-18T07:15:13.309Z,67.46
2018-02-18T07:16:13.323Z,67.46
2018-02-18T07:17:13.331Z,67.65
2018-02-18T07:18:13.338Z,67.27
2018-02-18T07:19:13.066Z,67.37
2018-02-18T07:20:13.076Z,67.37
2018-02-18T07:21:13.369Z,67.37
2018-02-18T07:22:13.097Z,67.56
2018-02-18T07:23:13.391Z,67.46
2018-02-18T07:24:13.402Z,67.46
2018-02-18T07:25:13.490Z,67.65
2018-02-18T07:26:13.424Z,67.37
2018-02-18T07:27:13.433Z,67.37
2018-02-18T07:28:13.449Z,67.37
2018-02-18T07:29:13.455Z,67.46
2018-02-18T07:30:13.464Z,67.37
2018-02-18T07:31:13.477Z,67.37
2018-02-18T07:32:13.483Z,67.46
2018-02-18T07:33:13.497Z,67.56
2018-02-18T07:34:13.512Z,67.27
2018-02-18T07:35:13.516Z,67.46
2018-02-18T07:36:13.527Z,67.56
2018-02-18T07:37:13.550Z,67.37
2018-02-18T07:38:13.550Z,67.27
2018-02-18T07:39:13.277Z,67.27
2018-02-18T07:40:13.574Z,67.37
2018-02-18T07:41:13.581Z,67.37
2018-02-18T07:42:13.594Z,67.37
2018-02-18T07:43:13.610Z,68.32
2018-02-18T07:44:13.612Z,67.27
2018-02-18T07:45:13.628Z,67.18
2018-02-18T07:46:13.656Z,67.27
2018-02-18T07:47:13.648Z,67.27
2018-02-18T07:48:13.661Z,67.18
2018-02-18T07:49:13.382Z,67.18
2018-02-18T07:50:13.676Z,67.27
2018-02-18T07:51:13.690Z,67.12
2018-02-18T07:52:13.704Z,67.31
2018-02-18T07:53:13.705Z,67.21
2018-02-18T07:54:13.725Z,67.27
2018-02-18T07:55:13.780Z,67.31
2018-02-18T07:56:13.456Z,67.31
2018-02-18T07:57:13.752Z,67.21
2018-02-18T07:58:13.762Z,67.21
2018-02-18T07:59:13.769Z,67.12
2018-02-18T08:00:13.784Z,67.5
2018-02-18T08:01:13.794Z,67.5
2018-02-18T08:02:13.806Z,67.31
2018-02-18T08:03:13.822Z,67.59
2018-02-18T08:04:13.822Z,67.69
2018-02-18T08:05:13.553Z,67.59
2018-02-18T08:06:13.851Z,67.59
2018-02-18T08:07:13.859Z,67.59
2018-02-18T08:08:13.585Z,67.59
2018-02-18T08:09:13.883Z,67.59
2018-02-18T08:10:13.891Z,67.59
2018-02-18T08:11:13.619Z,67.31
2018-02-18T08:12:13.911Z,67.31
2018-02-18T08:13:13.641Z,67.12
2018-02-18T08:14:13.933Z,67.4
2018-02-18T08:15:13.943Z,67.4
2018-02-18T08:16:13.954Z,67.4
2018-02-18T08:17:13.966Z,67.4
2018-02-18T08:18:13.973Z,67.4
2018-02-18T08:19:13.705Z,67.31
2018-02-18T08:20:14.000Z,67.5
2018-02-18T08:21:14.006Z,67.59
2018-02-18T08:22:14.020Z,67.59
2018-02-18T08:23:14.032Z,67.4
2018-02-18T08:24:14.040Z,67.4
2018-02-18T08:25:14.061Z,67.59
2018-02-18T08:26:14.060Z,67.59
2018-02-18T08:27:13.789Z,67.4
2018-02-18T08:28:14.089Z,67.12
2018-02-18T08:29:14.143Z,67.4
2018-02-18T08:30:14.142Z,67.31
2018-02-18T08:31:14.121Z,67.21
2018-02-18T08:32:14.126Z,66.93
2018-02-18T08:33:13.856Z,66.83
2018-02-18T08:34:13.864Z,66.74
2018-02-18T08:35:13.875Z,66.64
2018-02-18T08:36:13.889Z,67.12
2018-02-18T08:37:14.190Z,67.02
2018-02-18T08:38:14.194Z,67.02
2018-02-18T08:39:14.223Z,66.93
2018-02-18T08:40:13.931Z,67.02
2018-02-18T08:41:14.226Z,67.02
2018-02-18T08:42:14.238Z,66.83
2018-02-18T08:43:13.964Z,66.74
2018-02-18T08:44:14.257Z,66.64
2018-02-18T08:45:14.279Z,66.93
2018-02-18T08:46:14.282Z,67.02
2018-02-18T08:47:14.291Z,67.02
2018-02-18T08:48:14.302Z,66.93
2018-02-18T08:49:14.363Z,66.64
2018-02-18T08:50:14.043Z,66.36
2018-02-18T08:51:14.338Z,66.83
2018-02-18T08:52:14.065Z,66.46
2018-02-18T08:53:14.356Z,66.46
2018-02-18T08:54:14.367Z,66.83
2018-02-18T08:55:14.380Z,66.83
2018-02-18T08:56:14.107Z,66.36
2018-02-18T08:57:14.403Z,66.64
2018-02-18T08:58:14.415Z,66.93
2018-02-18T08:59:14.423Z,67.34
2018-02-18T09:00:14.150Z,67.02
2018-02-18T09:01:14.443Z,66.55
2018-02-18T09:02:14.462Z,66.39
2018-02-18T09:03:14.535Z,66.67
2018-02-18T09:04:14.481Z,66.77
2018-02-18T09:05:14.509Z,66.49
2018-02-18T09:06:14.504Z,66.77
2018-02-18T09:07:14.514Z,66.58
2018-02-18T09:08:14.523Z,66.3
2018-02-18T09:09:14.251Z,66.77
2018-02-18T09:10:14.605Z,66.58
2018-02-18T09:11:14.278Z,66.49
2018-02-18T09:12:14.285Z,66.49
2018-02-18T09:13:14.296Z,66.39
2018-02-18T09:14:14.591Z,66.77
2018-02-18T09:15:14.602Z,66.58
2018-02-18T09:16:14.613Z,66.67
2018-02-18T09:17:14.624Z,66.58
2018-02-18T09:18:14.353Z,66.39
2018-02-18T09:19:14.648Z,66.67
2018-02-18T09:20:14.654Z,66.49
2018-02-18T09:21:14.385Z,66.39
2018-02-18T09:22:14.682Z,66.11
2018-02-18T09:23:14.695Z,66.67
2018-02-18T09:24:14.709Z,66.11
2018-02-18T09:25:14.714Z,66.58
2018-02-18T09:26:14.726Z,66.39
2018-02-18T09:27:14.738Z,66.39
2018-02-18T09:28:14.826Z,66.3
2018-02-18T09:29:14.761Z,66.11
2018-02-18T09:30:14.491Z,66.77
2018-02-18T09:31:14.779Z,66.11
2018-02-18T09:32:14.791Z,66.39
2018-02-18T09:33:14.808Z,66.3
2018-02-18T09:34:14.533Z,66.3
2018-02-18T09:35:14.828Z,66.39
2018-02-18T09:36:14.838Z,66.2
2018-02-18T09:37:14.851Z,66.2
2018-02-18T09:38:14.861Z,65.82
2018-02-18T09:39:14.879Z,66.3
2018-02-18T09:40:14.886Z,65.82
2018-02-18T09:41:14.896Z,66.11
2018-02-18T09:42:14.909Z,65.86
2018-02-18T09:43:14.917Z,65.95
2018-02-18T09:44:14.929Z,65.54
2018-02-18T09:45:14.946Z,65.86
2018-02-18T09:46:14.956Z,65.44
2018-02-18T09:47:14.966Z,65.47
2018-02-18T09:48:14.977Z,65.57
2018-02-18T09:49:14.989Z,65.67
2018-02-18T09:50:15.049Z,65.76
2018-02-18T09:51:15.012Z,65.57
2018-02-18T09:52:14.745Z,65.38
2018-02-18T09:53:14.752Z,64.9
2018-02-18T09:54:14.766Z,65.38
2018-02-18T09:55:15.179Z,65.09
2018-02-18T09:56:15.071Z,65.47
2018-02-18T09:57:15.082Z,65.38
2018-02-18T09:58:15.094Z,64.9
2018-02-18T09:59:15.107Z,64.9
2018-02-18T10:00:15.168Z,64.9
2018-02-18T10:01:14.849Z,65.09
2018-02-18T10:02:15.141Z,64.9
2018-02-18T10:03:14.871Z,65.28
2018-02-18T10:04:15.162Z,64.9
2018-02-18T10:05:14.896Z,64.9
2018-02-18T10:06:15.190Z,64.72
2018-02-18T10:07:15.201Z,64.24
2018-02-18T10:08:15.220Z,64.14
2018-02-18T10:09:14.942Z,64.43
2018-02-18T10:10:15.236Z,64.43
2018-02-18T10:11:15.260Z,64.43
2018-02-18T10:12:15.259Z,64.34
2018-02-18T10:13:15.272Z,64.34
2018-02-18T10:14:15.294Z,64.53
2018-02-18T10:15:15.295Z,63.76
2018-02-18T10:16:15.026Z,64.24
2018-02-18T10:17:15.320Z,63.86
2018-02-18T10:18:15.331Z,64.05
2018-02-18T10:19:15.059Z,64.43
2018-02-18T10:20:15.356Z,64.34
2018-02-18T10:21:15.372Z,64.24
2018-02-18T10:22:15.387Z,64.24
2018-02-18T10:23:15.392Z,64.43
2018-02-18T10:24:15.403Z,64.37
2018-02-18T10:25:15.563Z,64.43
2018-02-18T10:26:15.425Z,64.08
2018-02-18T10:27:15.439Z,63.99
2018-02-18T10:28:15.169Z,63.79
2018-02-18T10:29:15.469Z,63.7
2018-02-18T10:30:15.476Z,63.7
2018-02-18T10:31:15.209Z,63.7
2018-02-18T10:32:15.218Z,63.6
2018-02-18T10:33:15.590Z,63.6
2018-02-18T10:34:15.526Z,63.42
2018-02-18T10:35:15.543Z,63.89
2018-02-18T10:36:15.561Z,63.7
2018-02-18T10:37:15.565Z,63.79
2018-02-18T10:38:15.289Z,63.32
2018-02-18T10:39:15.589Z,63.51
2018-02-18T10:40:15.599Z,63.51
2018-02-18T10:41:15.610Z,63.32
2018-02-18T10:42:15.626Z,63.42
2018-02-18T10:43:15.635Z,63.51
2018-02-18T10:44:15.362Z,63.7
2018-02-18T10:45:15.662Z,63.51
2018-02-18T10:46:15.679Z,62.94
2018-02-18T10:47:15.431Z,62.94
2018-02-18T10:48:15.700Z,62.94
2018-02-18T10:49:15.709Z,62.85
2018-02-18T10:50:15.723Z,63.04
2018-02-18T10:51:15.450Z,62.85
2018-02-18T10:52:15.756Z,63.04
2018-02-18T10:53:15.758Z,62.75
2018-02-18T10:54:15.825Z,62.75
2018-02-18T10:55:15.785Z,62.56
2018-02-18T10:56:15.796Z,62.65
2018-02-18T10:57:15.843Z,62.65
2018-02-18T10:58:15.538Z,62.75
2018-02-18T10:59:15.832Z,62.46
2018-02-18T11:00:15.850Z,62.75
2018-02-18T11:01:15.858Z,62.46
2018-02-18T11:02:15.869Z,62.27
2018-02-18T11:03:15.880Z,62.65
2018-02-18T11:04:15.903Z,62.94
2018-02-18T11:05:15.906Z,62.94
2018-02-18T11:06:15.920Z,62.75
2018-02-18T11:07:15.931Z,62.56
2018-02-18T11:08:15.661Z,62.65
2018-02-18T11:09:15.673Z,62.37
2018-02-18T11:10:15.969Z,62.18
2018-02-18T11:11:15.986Z,62.56
2018-02-18T11:12:15.995Z,62.46
2018-02-18T11:13:16.015Z,62.18
2018-02-18T11:14:16.021Z,62.27
2018-02-18T11:15:15.749Z,62.27
2018-02-18T11:16:16.048Z,62.4
2018-02-18T11:17:16.063Z,62.02
2018-02-18T11:18:15.788Z,62.02
2018-02-18T11:19:15.819Z,62.49
2018-02-18T11:20:16.106Z,62.12
2018-02-18T11:21:15.826Z,62.12
2018-02-18T11:22:16.119Z,61.55
2018-02-18T11:23:15.853Z,61.55
2018-02-18T11:24:15.862Z,62.02
2018-02-18T11:25:16.156Z,61.55
2018-02-18T11:26:16.173Z,61.74
2018-02-18T11:27:16.190Z,61.45
2018-02-18T11:28:16.196Z,61.45
2018-02-18T11:29:16.217Z,61.45
2018-02-18T11:30:16.225Z,61.64
2018-02-18T11:31:16.237Z,61.55
2018-02-18T11:32:16.248Z,61.55
2018-02-18T11:33:15.978Z,61.83
2018-02-18T11:34:15.990Z,61.35
2018-02-18T11:35:16.286Z,61.83
2018-02-18T11:36:16.297Z,61.74
2018-02-18T11:37:16.316Z,61.26
2018-02-18T11:38:16.328Z,61.07
2018-02-18T11:39:16.054Z,61.42
2018-02-18T11:40:16.068Z,61.13
2018-02-18T11:41:16.371Z,61.32
2018-02-18T11:42:16.412Z,61.32
2018-02-18T11:43:16.389Z,61.45
2018-02-18T11:44:16.406Z,60.97
2018-02-18T11:45:16.130Z,61.23
2018-02-18T11:46:16.476Z,60.94
2018-02-18T11:47:16.441Z,60.94
2018-02-18T11:48:16.453Z,60.78
2018-02-18T11:49:16.181Z,61.04
2018-02-18T11:50:16.477Z,60.75
2018-02-18T11:51:16.541Z,60.94
2018-02-18T11:52:16.518Z,61.13
2018-02-18T11:53:16.517Z,60.94
2018-02-18T11:54:16.527Z,61.26
2018-02-18T11:55:16.546Z,61.26
2018-02-18T11:56:16.556Z,61.64
2018-02-18T11:57:16.567Z,61.16
2018-02-18T11:58:16.581Z,61.07
2018-02-18T11:59:16.310Z,61.07
2018-02-18T12:00:16.325Z,60.69
2018-02-18T12:01:16.337Z,60.78
2018-02-18T12:02:16.349Z,60.78
2018-02-18T12:03:16.645Z,60.78
2018-02-18T12:04:16.374Z,60.97
2018-02-18T12:05:16.388Z,60.41
2018-02-18T12:06:16.735Z,60.69
2018-02-18T12:07:16.414Z,60.88
2018-02-18T12:08:16.707Z,61.07
2018-02-18T12:09:16.722Z,60.88
2018-02-18T12:10:16.737Z,61.16
2018-02-18T12:11:16.848Z,60.88
2018-02-18T12:12:16.763Z,60.78
2018-02-18T12:13:16.775Z,60.6
2018-02-18T12:14:16.786Z,60.69
2018-02-18T12:15:16.805Z,60.69
2018-02-18T12:16:16.816Z,60.78
2018-02-18T12:17:16.828Z,60.69
2018-02-18T12:18:16.838Z,60.6
2018-02-18T12:19:16.849Z,60.31
2018-02-18T12:20:16.865Z,60.31
2018-02-18T12:21:16.881Z,60.5
2018-02-18T12:22:16.890Z,60.97
2018-02-18T12:23:16.622Z,60.6
2018-02-18T12:24:16.916Z,60.5
2018-02-18T12:25:16.647Z,60.88
2018-02-18T12:26:16.942Z,60.78
2018-02-18T12:27:16.958Z,60.88
2018-02-18T12:28:16.969Z,60.5
2018-02-18T12:29:16.986Z,60.78
2018-02-18T12:30:16.710Z,60.78
2018-02-18T12:31:17.007Z,60.88
2018-02-18T12:32:17.019Z,60.31
2018-02-18T12:33:17.034Z,60.5
2018-02-18T12:34:16.806Z,61.07
2018-02-18T12:35:17.059Z,60.31
2018-02-18T12:36:17.126Z,60.6
2018-02-18T12:37:16.803Z,60.6
2018-02-18T12:38:17.098Z,60.41
2018-02-18T12:39:16.833Z,60.6
2018-02-18T12:40:17.126Z,60.78
2018-02-18T12:41:17.138Z,60.69
2018-02-18T12:42:17.149Z,60.69
2018-02-18T12:43:17.166Z,60.12
2018-02-18T12:44:17.179Z,60.88
2018-02-18T12:45:16.906Z,60.31
2018-02-18T12:46:16.971Z,60.31
2018-02-18T12:47:17.218Z,60.88
2018-02-18T12:48:17.230Z,60.5
2018-02-18T12:49:17.241Z,60.31
2018-02-18T12:50:17.255Z,60.31
2018-02-18T12:51:16.988Z,59.74
2018-02-18T12:52:17.280Z,60.31
2018-02-18T12:53:17.295Z,60.21
2018-02-18T12:54:17.310Z,60.41